sensor_id;sensor_type;location;lat;lon;timestamp;pressure;altitude;pressure_sealevel;temperature;humidity
70370;BME280;57790;51.356;-2.906;2023-06-04T00:00:49;102416.91;;;19.78;100.00
70370;BME280;57790;51.356;-2.906;2023-06-04T00:03:50;102425.16;;;19.77;100.00
70370;BME280;57790;51.356;-2.906;2023-06-04T00:06:50;102422.84;;;19.74;100.00
70370;BME280;57790;51.356;-2.906;2023-06-04T00:09:52;102425.06;;;19.70;100.00
70370;BME280;57790;51.356;-2.906;2023-06-04T00:12:53;102435.03;;;19.61;100.00
70370;BME280;57790;51.356;-2.906;2023-06-04T00:15:53;102432.53;;;19.60;100.00
70370;BME280;57790;51.356;-2.906;2023-06-04T00:18:53;102430.22;;;19.57;100.00
70370;BME280;57790;51.356;-2.906;2023-06-04T00:21:54;102437.28;;;19.50;100.00
70370;BME280;57790;51.356;-2.906;2023-06-04T00:24:54;102446.09;;;19.44;100.00
70370;BME280;57790;51.356;-2.906;2023-06-04T00:27:55;102435.38;;;19.36;100.00
70370;BME280;57790;51.356;-2.906;2023-06-04T00:30:55;102431.25;;;19.25;100.00
70370;BME280;57790;51.356;-2.906;2023-06-04T00:33:55;102438.00;;;19.21;100.00
70370;BME280;57790;51.356;-2.906;2023-06-04T00:36:56;102429.09;;;19.20;100.00
70370;BME280;57790;51.356;-2.906;2023-06-04T00:39:56;102438.72;;;19.15;100.00
70370;BME280;57790;51.356;-2.906;2023-06-04T00:42:57;102436.56;;;19.10;100.00
70370;BME280;57790;51.356;-2.906;2023-06-04T00:45:58;102431.19;;;19.10;100.00
70370;BME280;57790;51.356;-2.906;2023-06-04T00:48:58;102439.28;;;19.02;100.00
70370;BME280;57790;51.356;-2.906;2023-06-04T00:51:59;102433.94;;;18.94;100.00
70370;BME280;57790;51.356;-2.906;2023-06-04T00:55:00;102436.84;;;18.84;100.00
70370;BME280;57790;51.356;-2.906;2023-06-04T00:58:01;102433.63;;;18.89;100.00
70370;BME280;57790;51.356;-2.906;2023-06-04T01:01:03;102433.50;;;18.82;100.00
70370;BME280;57790;51.356;-2.906;2023-06-04T01:04:09;102439.75;;;18.75;100.00
70370;BME280;57790;51.356;-2.906;2023-06-04T01:07:14;102419.97;;;18.67;100.00
70370;BME280;57790;51.356;-2.906;2023-06-04T01:10:15;102431.88;;;18.65;100.00
70370;BME280;57790;51.356;-2.906;2023-06-04T01:13:16;102434.22;;;18.60;100.00
70370;BME280;57790;51.356;-2.906;2023-06-04T01:16:16;102430.34;;;18.62;100.00
70370;BME280;57790;51.356;-2.906;2023-06-04T01:25:51;102430.59;;;18.44;100.00
70370;BME280;57790;51.356;-2.906;2023-06-04T01:28:54;102438.47;;;18.46;100.00
70370;BME280;57790;51.356;-2.906;2023-06-04T01:31:55;102433.97;;;18.38;100.00
70370;BME280;57790;51.356;-2.906;2023-06-04T01:34:56;102431.63;;;18.35;100.00
70370;BME280;57790;51.356;-2.906;2023-06-04T01:37:57;102432.66;;;18.26;100.00
70370;BME280;57790;51.356;-2.906;2023-06-04T01:40:57;102436.69;;;18.22;100.00
70370;BME280;57790;51.356;-2.906;2023-06-04T01:44:01;102427.81;;;18.13;100.00
70370;BME280;57790;51.356;-2.906;2023-06-04T01:47:01;102426.81;;;18.14;100.00
70370;BME280;57790;51.356;-2.906;2023-06-04T01:50:06;102429.84;;;18.11;100.00
70370;BME280;57790;51.356;-2.906;2023-06-04T01:53:09;102426.16;;;18.12;100.00
70370;BME280;57790;51.356;-2.906;2023-06-04T01:56:09;102427.66;;;18.07;100.00
70370;BME280;57790;51.356;-2.906;2023-06-04T01:59:11;102434.19;;;18.04;100.00
70370;BME280;57790;51.356;-2.906;2023-06-04T02:02:13;102435.38;;;18.02;100.00
70370;BME280;57790;51.356;-2.906;2023-06-04T02:05:14;102443.13;;;17.97;100.00
70370;BME280;57790;51.356;-2.906;2023-06-04T02:08:15;102439.91;;;18.01;100.00
70370;BME280;57790;51.356;-2.906;2023-06-04T02:11:19;102447.94;;;17.93;100.00
70370;BME280;57790;51.356;-2.906;2023-06-04T02:14:19;102448.31;;;17.90;100.00
70370;BME280;57790;51.356;-2.906;2023-06-04T02:17:20;102447.97;;;17.85;100.00
70370;BME280;57790;51.356;-2.906;2023-06-04T02:20:20;102455.69;;;17.80;100.00
70370;BME280;57790;51.356;-2.906;2023-06-04T02:23:21;102456.53;;;17.80;100.00
70370;BME280;57790;51.356;-2.906;2023-06-04T02:26:21;102460.22;;;17.71;100.00
70370;BME280;57790;51.356;-2.906;2023-06-04T02:29:23;102452.13;;;17.63;100.00
70370;BME280;57790;51.356;-2.906;2023-06-04T02:32:24;102456.66;;;17.63;100.00
70370;BME280;57790;51.356;-2.906;2023-06-04T02:35:24;102465.19;;;17.58;100.00
70370;BME280;57790;51.356;-2.906;2023-06-04T02:38:25;102464.38;;;17.58;100.00
70370;BME280;57790;51.356;-2.906;2023-06-04T02:41:25;102462.03;;;17.54;100.00
70370;BME280;57790;51.356;-2.906;2023-06-04T02:44:26;102461.19;;;17.54;100.00
70370;BME280;57790;51.356;-2.906;2023-06-04T02:47:27;102451.78;;;17.42;100.00
70370;BME280;57790;51.356;-2.906;2023-06-04T02:50:27;102452.75;;;17.33;100.00
70370;BME280;57790;51.356;-2.906;2023-06-04T02:53:27;102457.44;;;17.31;100.00
70370;BME280;57790;51.356;-2.906;2023-06-04T02:56:28;102451.91;;;17.24;100.00
70370;BME280;57790;51.356;-2.906;2023-06-04T02:59:28;102457.09;;;17.25;100.00
70370;BME280;57790;51.356;-2.906;2023-06-04T03:02:29;102453.09;;;17.21;100.00
70370;BME280;57790;51.356;-2.906;2023-06-04T03:05:29;102458.75;;;17.18;100.00
70370;BME280;57790;51.356;-2.906;2023-06-04T03:08:33;102456.06;;;17.10;100.00
70370;BME280;57790;51.356;-2.906;2023-06-04T03:11:33;102448.19;;;17.09;100.00
70370;BME280;57790;51.356;-2.906;2023-06-04T03:14:33;102456.69;;;17.04;100.00
70370;BME280;57790;51.356;-2.906;2023-06-04T03:17:34;102454.34;;;17.01;100.00
70370;BME280;57790;51.356;-2.906;2023-06-04T03:20:34;102453.69;;;16.99;100.00
70370;BME280;57790;51.356;-2.906;2023-06-04T03:23:38;102454.34;;;16.93;100.00
70370;BME280;57790;51.356;-2.906;2023-06-04T03:26:38;102456.19;;;16.92;100.00
70370;BME280;57790;51.356;-2.906;2023-06-04T03:29:39;102454.47;;;16.91;100.00
70370;BME280;57790;51.356;-2.906;2023-06-04T03:32:40;102449.59;;;16.87;100.00
70370;BME280;57790;51.356;-2.906;2023-06-04T03:35:41;102447.41;;;16.82;100.00
70370;BME280;57790;51.356;-2.906;2023-06-04T03:38:41;102449.22;;;16.74;100.00
70370;BME280;57790;51.356;-2.906;2023-06-04T03:41:42;102446.66;;;16.64;100.00
70370;BME280;57790;51.356;-2.906;2023-06-04T03:44:43;102450.44;;;16.53;100.00
70370;BME280;57790;51.356;-2.906;2023-06-04T03:47:43;102450.28;;;16.55;100.00
70370;BME280;57790;51.356;-2.906;2023-06-04T03:50:43;102456.63;;;16.54;100.00
70370;BME280;57790;51.356;-2.906;2023-06-04T03:53:46;102451.59;;;16.51;100.00
70370;BME280;57790;51.356;-2.906;2023-06-04T03:56:47;102444.25;;;16.53;100.00
70370;BME280;57790;51.356;-2.906;2023-06-04T03:59:47;102453.53;;;16.41;100.00
70370;BME280;57790;51.356;-2.906;2023-06-04T04:02:47;102456.72;;;16.36;100.00
70370;BME280;57790;51.356;-2.906;2023-06-04T04:05:48;102450.81;;;16.32;100.00
70370;BME280;57790;51.356;-2.906;2023-06-04T04:08:48;102456.31;;;16.31;100.00
70370;BME280;57790;51.356;-2.906;2023-06-04T04:11:49;102446.63;;;16.30;100.00
70370;BME280;57790;51.356;-2.906;2023-06-04T04:14:49;102451.78;;;16.23;100.00
70370;BME280;57790;51.356;-2.906;2023-06-04T04:17:50;102451.69;;;16.15;100.00
70370;BME280;57790;51.356;-2.906;2023-06-04T04:20:50;102444.66;;;16.14;100.00
70370;BME280;57790;51.356;-2.906;2023-06-04T04:23:50;102449.34;;;16.12;100.00
70370;BME280;57790;51.356;-2.906;2023-06-04T04:26:52;102451.50;;;16.09;100.00
70370;BME280;57790;51.356;-2.906;2023-06-04T04:29:53;102453.44;;;15.98;100.00
70370;BME280;57790;51.356;-2.906;2023-06-04T04:32:55;102442.81;;;15.89;100.00
70370;BME280;57790;51.356;-2.906;2023-06-04T04:35:56;102440.75;;;15.83;100.00
70370;BME280;57790;51.356;-2.906;2023-06-04T04:38:57;102449.09;;;15.80;100.00
70370;BME280;57790;51.356;-2.906;2023-06-04T04:41:58;102456.72;;;15.74;100.00
70370;BME280;57790;51.356;-2.906;2023-06-04T04:44:59;102454.06;;;15.74;100.00
70370;BME280;57790;51.356;-2.906;2023-06-04T04:47:59;102447.72;;;15.75;100.00
70370;BME280;57790;51.356;-2.906;2023-06-04T04:50:59;102453.06;;;15.75;100.00
70370;BME280;57790;51.356;-2.906;2023-06-04T04:54:00;102446.63;;;15.86;100.00
70370;BME280;57790;51.356;-2.906;2023-06-04T04:57:00;102440.09;;;15.81;100.00
70370;BME280;57790;51.356;-2.906;2023-06-04T05:00:03;102447.44;;;15.79;100.00
70370;BME280;57790;51.356;-2.906;2023-06-04T05:03:05;102434.50;;;15.74;100.00
70370;BME280;57790;51.356;-2.906;2023-06-04T05:06:06;102436.72;;;15.79;100.00
70370;BME280;57790;51.356;-2.906;2023-06-04T05:09:06;102438.47;;;15.70;100.00
70370;BME280;57790;51.356;-2.906;2023-06-04T05:12:07;102430.00;;;15.74;100.00
70370;BME280;57790;51.356;-2.906;2023-06-04T05:15:08;102430.38;;;15.62;100.00
70370;BME280;57790;51.356;-2.906;2023-06-04T05:18:12;102438.63;;;15.68;100.00
70370;BME280;57790;51.356;-2.906;2023-06-04T05:21:13;102442.63;;;15.64;100.00
70370;BME280;57790;51.356;-2.906;2023-06-04T05:24:13;102440.09;;;15.63;100.00
70370;BME280;57790;51.356;-2.906;2023-06-04T05:27:13;102450.69;;;15.55;100.00
70370;BME280;57790;51.356;-2.906;2023-06-04T05:30:14;102448.41;;;15.60;100.00
70370;BME280;57790;51.356;-2.906;2023-06-04T05:33:15;102448.53;;;15.58;100.00
70370;BME280;57790;51.356;-2.906;2023-06-04T05:36:19;102450.69;;;15.55;100.00
70370;BME280;57790;51.356;-2.906;2023-06-04T05:39:19;102455.44;;;15.61;100.00
70370;BME280;57790;51.356;-2.906;2023-06-04T05:42:20;102458.03;;;15.53;100.00
70370;BME280;57790;51.356;-2.906;2023-06-04T05:45:21;102459.44;;;15.47;100.00
70370;BME280;57790;51.356;-2.906;2023-06-04T05:48:21;102454.94;;;15.47;100.00
70370;BME280;57790;51.356;-2.906;2023-06-04T05:51:21;102465.50;;;15.49;100.00
70370;BME280;57790;51.356;-2.906;2023-06-04T05:54:22;102462.91;;;15.57;100.00
70370;BME280;57790;51.356;-2.906;2023-06-04T05:57:22;102468.69;;;15.62;100.00
70370;BME280;57790;51.356;-2.906;2023-06-04T06:00:23;102474.03;;;15.62;100.00
70370;BME280;57790;51.356;-2.906;2023-06-04T06:03:23;102464.69;;;15.66;100.00
70370;BME280;57790;51.356;-2.906;2023-06-04T06:06:24;102478.97;;;15.75;100.00
70370;BME280;57790;51.356;-2.906;2023-06-04T06:09:24;102472.19;;;15.81;100.00
70370;BME280;57790;51.356;-2.906;2023-06-04T06:12:25;102469.88;;;15.86;100.00
70370;BME280;57790;51.356;-2.906;2023-06-04T06:15:25;102477.72;;;15.87;100.00
70370;BME280;57790;51.356;-2.906;2023-06-04T06:18:26;102466.19;;;15.87;100.00
70370;BME280;57790;51.356;-2.906;2023-06-04T06:21:26;102480.88;;;15.83;100.00
70370;BME280;57790;51.356;-2.906;2023-06-04T06:24:27;102469.03;;;15.85;100.00
70370;BME280;57790;51.356;-2.906;2023-06-04T06:27:27;102466.03;;;15.88;100.00
70370;BME280;57790;51.356;-2.906;2023-06-04T06:30:28;102461.97;;;16.02;100.00
70370;BME280;57790;51.356;-2.906;2023-06-04T06:33:28;102470.38;;;16.07;100.00
70370;BME280;57790;51.356;-2.906;2023-06-04T06:36:29;102465.75;;;16.17;100.00
70370;BME280;57790;51.356;-2.906;2023-06-04T06:39:29;102465.00;;;16.25;100.00
70370;BME280;57790;51.356;-2.906;2023-06-04T06:42:32;102466.00;;;16.24;100.00
70370;BME280;57790;51.356;-2.906;2023-06-04T06:45:33;102467.81;;;16.23;100.00
70370;BME280;57790;51.356;-2.906;2023-06-04T06:48:34;102463.84;;;16.27;100.00
70370;BME280;57790;51.356;-2.906;2023-06-04T06:51:34;102464.88;;;16.34;100.00
70370;BME280;57790;51.356;-2.906;2023-06-04T06:54:35;102462.25;;;16.43;100.00
70370;BME280;57790;51.356;-2.906;2023-06-04T06:57:35;102461.31;;;16.52;100.00
70370;BME280;57790;51.356;-2.906;2023-06-04T07:00:35;102465.81;;;16.51;100.00
70370;BME280;57790;51.356;-2.906;2023-06-04T07:03:36;102474.53;;;16.53;100.00
70370;BME280;57790;51.356;-2.906;2023-06-04T07:06:38;102472.88;;;16.52;100.00
70370;BME280;57790;51.356;-2.906;2023-06-04T07:09:38;102463.69;;;16.63;100.00
70370;BME280;57790;51.356;-2.906;2023-06-04T07:12:39;102466.91;;;16.66;100.00
70370;BME280;57790;51.356;-2.906;2023-06-04T07:15:39;102469.28;;;16.70;100.00
70370;BME280;57790;51.356;-2.906;2023-06-04T07:18:40;102470.31;;;16.77;100.00
70370;BME280;57790;51.356;-2.906;2023-06-04T07:21:40;102473.81;;;16.69;100.00
70370;BME280;57790;51.356;-2.906;2023-06-04T07:24:41;102472.66;;;16.72;100.00
70370;BME280;57790;51.356;-2.906;2023-06-04T07:27:42;102473.69;;;16.79;100.00
70370;BME280;57790;51.356;-2.906;2023-06-04T07:30:45;102466.84;;;16.84;100.00
70370;BME280;57790;51.356;-2.906;2023-06-04T07:33:45;102470.41;;;16.93;100.00
70370;BME280;57790;51.356;-2.906;2023-06-04T07:36:47;102467.56;;;16.94;100.00
70370;BME280;57790;51.356;-2.906;2023-06-04T07:39:47;102469.59;;;17.01;100.00
70370;BME280;57790;51.356;-2.906;2023-06-04T07:42:48;102477.13;;;17.05;100.00
70370;BME280;57790;51.356;-2.906;2023-06-04T07:45:48;102472.47;;;17.15;100.00
70370;BME280;57790;51.356;-2.906;2023-06-04T07:48:49;102478.88;;;17.22;100.00
70370;BME280;57790;51.356;-2.906;2023-06-04T07:51:49;102475.72;;;17.27;100.00
70370;BME280;57790;51.356;-2.906;2023-06-04T07:54:49;102472.53;;;17.32;100.00
70370;BME280;57790;51.356;-2.906;2023-06-04T07:57:50;102474.22;;;17.41;100.00
70370;BME280;57790;51.356;-2.906;2023-06-04T08:00:50;102475.22;;;17.48;100.00
70370;BME280;57790;51.356;-2.906;2023-06-04T08:03:50;102479.28;;;17.52;100.00
70370;BME280;57790;51.356;-2.906;2023-06-04T08:06:51;102473.75;;;17.53;100.00
70370;BME280;57790;51.356;-2.906;2023-06-04T08:09:52;102472.06;;;17.61;100.00
70370;BME280;57790;51.356;-2.906;2023-06-04T08:12:52;102471.44;;;17.67;100.00
70370;BME280;57790;51.356;-2.906;2023-06-04T08:15:52;102467.72;;;17.68;100.00
70370;BME280;57790;51.356;-2.906;2023-06-04T08:18:53;102467.09;;;17.74;100.00
70370;BME280;57790;51.356;-2.906;2023-06-04T08:21:53;102470.59;;;17.74;100.00
70370;BME280;57790;51.356;-2.906;2023-06-04T08:24:54;102471.81;;;17.80;100.00
70370;BME280;57790;51.356;-2.906;2023-06-04T08:27:55;102472.94;;;17.77;100.00
70370;BME280;57790;51.356;-2.906;2023-06-04T08:30:55;102468.59;;;17.76;100.00
70370;BME280;57790;51.356;-2.906;2023-06-04T08:33:56;102475.63;;;17.77;100.00
70370;BME280;57790;51.356;-2.906;2023-06-04T08:36:56;102468.28;;;17.79;100.00
70370;BME280;57790;51.356;-2.906;2023-06-04T08:39:57;102463.75;;;17.80;100.00
70370;BME280;57790;51.356;-2.906;2023-06-04T08:42:58;102466.09;;;17.83;100.00
70370;BME280;57790;51.356;-2.906;2023-06-04T08:46:00;102470.09;;;17.87;100.00
70370;BME280;57790;51.356;-2.906;2023-06-04T08:49:07;102472.63;;;17.89;100.00
70370;BME280;57790;51.356;-2.906;2023-06-04T08:52:08;102460.88;;;17.90;100.00
70370;BME280;57790;51.356;-2.906;2023-06-04T08:55:11;102472.09;;;17.93;100.00
70370;BME280;57790;51.356;-2.906;2023-06-04T08:58:13;102466.59;;;17.95;100.00
70370;BME280;57790;51.356;-2.906;2023-06-04T09:01:15;102465.75;;;17.94;100.00
70370;BME280;57790;51.356;-2.906;2023-06-04T09:04:15;102455.53;;;17.98;100.00
70370;BME280;57790;51.356;-2.906;2023-06-04T09:07:17;102459.19;;;18.05;100.00
70370;BME280;57790;51.356;-2.906;2023-06-04T09:10:18;102465.09;;;18.08;100.00
70370;BME280;57790;51.356;-2.906;2023-06-04T09:13:23;102467.41;;;18.11;100.00
70370;BME280;57790;51.356;-2.906;2023-06-04T09:16:28;102468.56;;;18.17;100.00
70370;BME280;57790;51.356;-2.906;2023-06-04T09:19:36;102470.75;;;18.22;100.00
70370;BME280;57790;51.356;-2.906;2023-06-04T09:22:37;102463.69;;;18.29;100.00
70370;BME280;57790;51.356;-2.906;2023-06-04T09:25:42;102469.38;;;18.34;100.00
70370;BME280;57790;51.356;-2.906;2023-06-04T09:28:46;102466.88;;;18.40;100.00
70370;BME280;57790;51.356;-2.906;2023-06-04T09:31:47;102469.03;;;18.45;100.00
70370;BME280;57790;51.356;-2.906;2023-06-04T09:34:47;102457.44;;;18.53;100.00
70370;BME280;57790;51.356;-2.906;2023-06-04T09:37:55;102462.94;;;18.59;100.00
70370;BME280;57790;51.356;-2.906;2023-06-04T09:40:56;102461.28;;;18.66;100.00
70370;BME280;57790;51.356;-2.906;2023-06-04T09:44:03;102465.13;;;18.72;100.00
70370;BME280;57790;51.356;-2.906;2023-06-04T09:47:04;102470.44;;;18.80;100.00
70370;BME280;57790;51.356;-2.906;2023-06-04T09:50:05;102473.47;;;18.85;100.00
70370;BME280;57790;51.356;-2.906;2023-06-04T09:53:17;102468.41;;;18.90;100.00
70370;BME280;57790;51.356;-2.906;2023-06-04T09:56:17;102470.56;;;18.95;100.00
70370;BME280;57790;51.356;-2.906;2023-06-04T09:59:18;102471.53;;;19.02;100.00
70370;BME280;57790;51.356;-2.906;2023-06-04T10:02:20;102471.50;;;19.10;100.00
70370;BME280;57790;51.356;-2.906;2023-06-04T10:05:21;102469.31;;;19.14;100.00
70370;BME280;57790;51.356;-2.906;2023-06-04T10:08:23;102477.00;;;19.17;100.00
70370;BME280;57790;51.356;-2.906;2023-06-04T10:11:26;102478.31;;;19.21;100.00
70370;BME280;57790;51.356;-2.906;2023-06-04T10:14:37;102473.09;;;19.27;100.00
70370;BME280;57790;51.356;-2.906;2023-06-04T10:17:40;102473.03;;;19.36;100.00
70370;BME280;57790;51.356;-2.906;2023-06-04T10:20:41;102475.19;;;19.40;100.00
70370;BME280;57790;51.356;-2.906;2023-06-04T10:23:43;102479.03;;;19.46;100.00
70370;BME280;57790;51.356;-2.906;2023-06-04T10:26:45;102471.94;;;19.53;100.00
70370;BME280;57790;51.356;-2.906;2023-06-04T10:29:46;102464.47;;;19.63;100.00
70370;BME280;57790;51.356;-2.906;2023-06-04T10:32:46;102470.81;;;19.70;100.00
70370;BME280;57790;51.356;-2.906;2023-06-04T10:35:47;102473.50;;;19.70;100.00
70370;BME280;57790;51.356;-2.906;2023-06-04T10:42:03;102464.66;;;19.84;100.00
70370;BME280;57790;51.356;-2.906;2023-06-04T10:45:04;102463.91;;;19.90;100.00
70370;BME280;57790;51.356;-2.906;2023-06-04T10:48:06;102465.97;;;20.03;100.00
70370;BME280;57790;51.356;-2.906;2023-06-04T10:51:07;102461.38;;;20.12;100.00
70370;BME280;57790;51.356;-2.906;2023-06-04T10:54:07;102459.59;;;20.19;100.00
70370;BME280;57790;51.356;-2.906;2023-06-04T10:57:15;102453.59;;;20.32;100.00
70370;BME280;57790;51.356;-2.906;2023-06-04T11:00:16;102460.72;;;20.39;100.00
70370;BME280;57790;51.356;-2.906;2023-06-04T11:03:16;102456.06;;;20.41;100.00
70370;BME280;57790;51.356;-2.906;2023-06-04T11:06:17;102458.81;;;20.48;100.00
70370;BME280;57790;51.356;-2.906;2023-06-04T11:09:18;102458.00;;;20.47;100.00
70370;BME280;57790;51.356;-2.906;2023-06-04T11:12:19;102460.41;;;20.57;100.00
70370;BME280;57790;51.356;-2.906;2023-06-04T11:15:20;102459.47;;;20.65;100.00
70370;BME280;57790;51.356;-2.906;2023-06-04T11:18:21;102460.03;;;20.75;100.00
70370;BME280;57790;51.356;-2.906;2023-06-04T11:21:22;102459.00;;;20.76;100.00
70370;BME280;57790;51.356;-2.906;2023-06-04T11:24:23;102463.16;;;20.78;100.00
70370;BME280;57790;51.356;-2.906;2023-06-04T11:27:24;102461.97;;;20.81;100.00
70370;BME280;57790;51.356;-2.906;2023-06-04T11:30:24;102459.81;;;20.91;100.00
70370;BME280;57790;51.356;-2.906;2023-06-04T11:33:25;102457.22;;;20.98;100.00
70370;BME280;57790;51.356;-2.906;2023-06-04T11:36:27;102450.41;;;21.02;100.00
70370;BME280;57790;51.356;-2.906;2023-06-04T11:39:34;102448.25;;;21.12;100.00
70370;BME280;57790;51.356;-2.906;2023-06-04T11:42:40;102442.47;;;21.15;100.00
70370;BME280;57790;51.356;-2.906;2023-06-04T11:45:43;102437.13;;;21.22;100.00
70370;BME280;57790;51.356;-2.906;2023-06-04T11:48:44;102434.09;;;21.25;100.00
70370;BME280;57790;51.356;-2.906;2023-06-04T11:51:49;102437.44;;;21.27;100.00
70370;BME280;57790;51.356;-2.906;2023-06-04T11:54:50;102430.69;;;21.37;100.00
70370;BME280;57790;51.356;-2.906;2023-06-04T11:57:51;102438.88;;;21.44;100.00
70370;BME280;57790;51.356;-2.906;2023-06-04T12:00:52;102433.97;;;21.54;100.00
70370;BME280;57790;51.356;-2.906;2023-06-04T12:03:52;102434.63;;;21.56;100.00
70370;BME280;57790;51.356;-2.906;2023-06-04T12:06:57;102429.31;;;21.69;100.00
70370;BME280;57790;51.356;-2.906;2023-06-04T12:10:05;102436.84;;;21.74;100.00
70370;BME280;57790;51.356;-2.906;2023-06-04T12:13:07;102437.72;;;21.81;100.00
70370;BME280;57790;51.356;-2.906;2023-06-04T12:16:07;102428.03;;;21.87;100.00
70370;BME280;57790;51.356;-2.906;2023-06-04T12:19:09;102427.88;;;21.95;100.00
70370;BME280;57790;51.356;-2.906;2023-06-04T12:22:10;102431.88;;;21.99;100.00
70370;BME280;57790;51.356;-2.906;2023-06-04T12:25:10;102426.53;;;22.06;100.00
70370;BME280;57790;51.356;-2.906;2023-06-04T12:28:17;102424.47;;;22.08;100.00
70370;BME280;57790;51.356;-2.906;2023-06-04T12:31:18;102424.75;;;22.19;100.00
70370;BME280;57790;51.356;-2.906;2023-06-04T12:34:19;102415.84;;;22.25;100.00
70370;BME280;57790;51.356;-2.906;2023-06-04T12:37:21;102421.75;;;22.36;100.00
70370;BME280;57790;51.356;-2.906;2023-06-04T12:40:21;102411.81;;;22.43;100.00
70370;BME280;57790;51.356;-2.906;2023-06-04T12:43:22;102412.03;;;22.48;100.00
70370;BME280;57790;51.356;-2.906;2023-06-04T12:46:23;102417.88;;;22.51;100.00
70370;BME280;57790;51.356;-2.906;2023-06-04T12:49:23;102414.34;;;22.51;100.00
70370;BME280;57790;51.356;-2.906;2023-06-04T12:52:24;102426.03;;;22.58;100.00
70370;BME280;57790;51.356;-2.906;2023-06-04T12:55:24;102420.22;;;22.61;100.00
70370;BME280;57790;51.356;-2.906;2023-06-04T12:58:25;102414.00;;;22.67;100.00
70370;BME280;57790;51.356;-2.906;2023-06-04T13:01:25;102412.56;;;22.71;100.00
70370;BME280;57790;51.356;-2.906;2023-06-04T13:04:26;102412.38;;;22.79;100.00
70370;BME280;57790;51.356;-2.906;2023-06-04T13:07:26;102409.47;;;22.81;100.00
70370;BME280;57790;51.356;-2.906;2023-06-04T13:10:26;102408.88;;;22.85;100.00
70370;BME280;57790;51.356;-2.906;2023-06-04T13:13:27;102406.63;;;22.96;100.00
70370;BME280;57790;51.356;-2.906;2023-06-04T13:16:27;102407.06;;;22.99;100.00
70370;BME280;57790;51.356;-2.906;2023-06-04T13:19:28;102410.63;;;23.06;100.00
70370;BME280;57790;51.356;-2.906;2023-06-04T13:22:28;102398.34;;;23.04;100.00
70370;BME280;57790;51.356;-2.906;2023-06-04T13:25:28;102404.81;;;23.09;100.00
70370;BME280;57790;51.356;-2.906;2023-06-04T13:28:30;102394.81;;;23.10;100.00
70370;BME280;57790;51.356;-2.906;2023-06-04T13:31:31;102404.84;;;23.16;100.00
70370;BME280;57790;51.356;-2.906;2023-06-04T13:34:31;102408.38;;;23.23;100.00
70370;BME280;57790;51.356;-2.906;2023-06-04T13:37:32;102394.03;;;23.29;100.00
70370;BME280;57790;51.356;-2.906;2023-06-04T13:40:34;102393.41;;;23.34;100.00
70370;BME280;57790;51.356;-2.906;2023-06-04T13:43:35;102384.88;;;23.43;100.00
70370;BME280;57790;51.356;-2.906;2023-06-04T13:46:35;102389.03;;;23.53;100.00
70370;BME280;57790;51.356;-2.906;2023-06-04T13:49:35;102394.03;;;23.56;100.00
70370;BME280;57790;51.356;-2.906;2023-06-04T13:52:39;102391.13;;;23.57;100.00
70370;BME280;57790;51.356;-2.906;2023-06-04T13:55:39;102388.66;;;23.62;100.00
70370;BME280;57790;51.356;-2.906;2023-06-04T13:58:40;102385.75;;;23.64;100.00
70370;BME280;57790;51.356;-2.906;2023-06-04T14:01:40;102388.25;;;23.65;100.00
70370;BME280;57790;51.356;-2.906;2023-06-04T14:04:41;102387.81;;;23.68;100.00
70370;BME280;57790;51.356;-2.906;2023-06-04T14:07:42;102382.81;;;23.72;100.00
70370;BME280;57790;51.356;-2.906;2023-06-04T14:10:43;102387.22;;;23.73;100.00
70370;BME280;57790;51.356;-2.906;2023-06-04T14:13:43;102379.28;;;23.78;100.00
70370;BME280;57790;51.356;-2.906;2023-06-04T14:16:45;102370.94;;;23.80;100.00
70370;BME280;57790;51.356;-2.906;2023-06-04T14:19:46;102375.94;;;23.89;100.00
70370;BME280;57790;51.356;-2.906;2023-06-04T14:22:46;102383.84;;;23.91;100.00
70370;BME280;57790;51.356;-2.906;2023-06-04T14:25:46;102370.69;;;23.94;100.00
70370;BME280;57790;51.356;-2.906;2023-06-04T14:28:47;102372.59;;;23.94;100.00
70370;BME280;57790;51.356;-2.906;2023-06-04T14:31:47;102377.38;;;23.92;100.00
70370;BME280;57790;51.356;-2.906;2023-06-04T14:34:49;102379.66;;;23.95;100.00
70370;BME280;57790;51.356;-2.906;2023-06-04T14:37:49;102374.66;;;23.98;100.00
70370;BME280;57790;51.356;-2.906;2023-06-04T14:40:50;102369.00;;;24.00;100.00
70370;BME280;57790;51.356;-2.906;2023-06-04T14:43:50;102367.97;;;24.08;100.00
70370;BME280;57790;51.356;-2.906;2023-06-04T14:46:51;102370.88;;;24.13;100.00
70370;BME280;57790;51.356;-2.906;2023-06-04T14:49:51;102365.00;;;24.16;99.06
70370;BME280;57790;51.356;-2.906;2023-06-04T14:52:52;102361.28;;;24.17;99.89
70370;BME280;57790;51.356;-2.906;2023-06-04T14:55:52;102362.91;;;24.24;99.94
70370;BME280;57790;51.356;-2.906;2023-06-04T14:58:53;102365.63;;;24.24;100.00
70370;BME280;57790;51.356;-2.906;2023-06-04T15:01:53;102345.84;;;24.30;100.00
70370;BME280;57790;51.356;-2.906;2023-06-04T15:04:55;102356.25;;;24.33;99.85
70370;BME280;57790;51.356;-2.906;2023-06-04T15:07:55;102357.47;;;24.38;99.74
70370;BME280;57790;51.356;-2.906;2023-06-04T15:10:56;102354.56;;;24.39;97.87
70370;BME280;57790;51.356;-2.906;2023-06-04T15:13:56;102353.72;;;24.39;97.76
70370;BME280;57790;51.356;-2.906;2023-06-04T15:16:57;102354.72;;;24.44;98.07
70370;BME280;57790;51.356;-2.906;2023-06-04T15:19:57;102350.13;;;24.45;97.17
70370;BME280;57790;51.356;-2.906;2023-06-04T15:22:58;102351.59;;;24.47;96.00
70370;BME280;57790;51.356;-2.906;2023-06-04T15:25:58;102358.25;;;24.51;96.30
70370;BME280;57790;51.356;-2.906;2023-06-04T15:28:58;102355.09;;;24.54;96.45
70370;BME280;57790;51.356;-2.906;2023-06-04T15:31:59;102351.97;;;24.57;96.68